Time;durP1;ratioP1;P1;durP2;ratioP2;P2;SDS_P1;SDS_P2;PMS_P1;PMS_P2;Temp;Humidity;BMP_temperature;BMP_pressure;BME280_temperature;BME280_humidity;BME280_pressure;Samples;Min_cycle;Max_cycle;Signal;HPM_P1;HPM_P2
2022/03/30 00:00:24;;;;;;;21.55;9.98;;;13.60;50.00;;;12.30;50.82;94868.91;5009733;28;20389;-64
2022/03/30 00:02:49;;;;;;;29.13;11.30;;;13.60;50.20;;;12.29;50.87;94869.16;5004789;28;20042;-64
2022/03/30 00:05:15;;;;;;;19.58;9.07;;;13.60;50.20;;;12.26;51.04;94875.69;5010101;28;20045;-64
2022/03/30 00:07:41;;;;;;;21.45;10.20;;;13.50;50.40;;;12.24;50.89;94867.19;5006722;28;20049;-64
2022/03/30 00:10:07;;;;;;;23.38;10.38;;;13.60;50.30;;;12.23;50.85;94865.59;5010776;28;20115;-64
2022/03/30 00:12:34;;;;;;;23.88;10.75;;;13.60;50.60;;;12.20;51.37;94861.56;5005195;28;20286;-64
2022/03/30 00:15:00;;;;;;;25.33;11.40;;;13.50;50.80;;;12.18;50.93;94863.63;4999523;28;20049;-64
2022/03/30 00:17:26;;;;;;;23.27;10.40;;;13.50;50.70;;;12.13;50.82;94858.25;5009402;28;20095;-64
2022/03/30 00:19:52;;;;;;;22.38;10.93;;;13.30;50.80;;;12.07;51.80;94861.81;5004958;28;20042;-64
2022/03/30 00:22:17;;;;;;;23.08;11.27;;;13.20;51.20;;;12.04;51.25;94857.00;5009821;28;20536;-64
2022/03/30 00:24:44;;;;;;;22.02;10.60;;;13.20;51.30;;;12.00;51.23;94855.84;5007437;28;20456;-64
2022/03/30 00:27:11;;;;;;;27.00;11.20;;;13.20;51.40;;;11.99;51.95;94848.94;5004027;28;20054;-64
2022/03/30 00:29:36;;;;;;;21.30;10.73;;;13.20;51.60;;;11.96;51.80;94842.28;5010695;28;20045;-64
2022/03/30 00:32:03;;;;;;;23.55;10.68;;;13.30;51.70;;;11.94;51.86;94846.19;5009842;28;20133;-64
2022/03/30 00:34:28;;;;;;;27.88;11.73;;;13.10;51.90;;;11.90;52.79;94837.94;5005032;28;20129;-64
2022/03/30 00:36:54;;;;;;;28.25;11.10;;;13.10;52.20;;;11.84;52.19;94840.69;5005133;28;20410;-64
2022/03/30 00:39:20;;;;;;;18.10;10.07;;;13.10;52.50;;;11.80;53.05;94839.56;5008990;28;20042;-64
2022/03/30 00:41:46;;;;;;;23.30;11.27;;;13.00;52.80;;;11.80;52.59;94829.81;5009735;28;20057;-64
2022/03/30 00:44:13;;;;;;;23.88;10.57;;;13.10;53.10;;;11.82;53.03;94832.22;5006297;28;20050;-64
2022/03/30 00:46:41;;;;;;;24.50;11.60;;;13.10;52.90;;;11.80;53.23;94829.81;5007552;28;20170;-64
2022/03/30 00:49:07;;;;;;;22.73;10.18;;;13.10;53.10;;;11.74;54.25;94835.94;5005736;28;20030;-64
2022/03/30 00:51:33;;;;;;;18.95;11.30;;;13.00;53.20;;;11.72;54.17;94838.00;5004880;28;20077;-64
2022/03/30 00:53:59;;;;;;;24.17;10.13;;;13.00;53.10;;;11.72;53.55;94830.09;5004324;28;20029;-64
2022/03/30 00:56:25;;;;;;;20.48;10.57;;;13.10;53.20;;;11.70;53.60;94819.00;5009576;28;20041;-64
2022/03/30 00:58:51;;;;;;;21.25;10.52;;;13.00;53.60;;;11.66;54.96;94817.84;4991838;28;20213;-64
2022/03/30 01:01:17;;;;;;;21.45;10.65;;;13.00;54.20;;;11.61;55.45;94810.63;5006489;28;20532;-64
2022/03/30 01:03:43;;;;;;;31.13;11.00;;;12.90;54.60;;;11.59;55.68;94812.69;5001284;28;20038;-64
2022/03/30 01:06:08;;;;;;;27.00;10.40;;;12.80;54.70;;;11.54;55.05;94806.47;5006847;28;20045;-64
2022/03/30 01:08:35;;;;;;;27.88;11.27;;;12.80;55.00;;;11.51;54.89;94804.28;5009562;28;20124;-63
2022/03/30 01:11:00;;;;;;;26.70;10.90;;;12.70;55.50;;;11.45;55.18;94800.75;5007224;28;20030;-64
2022/03/30 01:13:26;;;;;;;21.90;11.30;;;12.60;55.20;;;11.34;55.72;94798.91;5004812;28;20501;-64
2022/03/30 01:15:52;;;;;;;24.40;11.27;;;12.40;56.00;;;11.29;55.81;94794.28;5002771;28;20114;-64
2022/03/30 01:18:18;;;;;;;24.63;10.90;;;12.50;55.70;;;11.21;56.27;94788.56;5023136;28;20037;-64
2022/03/30 01:20:50;;;;;;;22.15;10.00;;;12.40;56.10;;;11.18;57.12;94789.00;5005825;28;20125;-64
2022/03/30 01:23:16;;;;;;;21.35;10.40;;;12.40;56.10;;;11.16;56.94;94791.06;5002541;28;20041;-64
2022/03/30 01:25:42;;;;;;;19.50;10.20;;;12.40;55.70;;;11.12;56.71;94784.66;5025689;22;20604;-67
2022/03/30 01:28:08;;;;;;;23.73;9.88;;;12.40;55.70;;;11.06;55.87;94778.41;4985354;28;20037;-65
2022/03/30 01:33:18;;;;;;;26.98;9.88;;;12.30;56.00;;;11.04;56.34;94767.31;5012153;28;20034;-65
2022/03/30 01:35:44;;;;;;;25.85;10.30;;;12.30;56.10;;;10.98;56.33;94753.25;4987795;28;20030;-65
2022/03/30 01:38:10;;;;;;;21.70;10.25;;;12.30;56.10;;;11.04;57.16;94757.59;4969237;28;20161;-65
2022/03/30 01:40:36;;;;;;;22.55;10.18;;;12.30;56.10;;;11.03;56.92;94756.00;4993079;28;20053;-66
2022/03/30 01:43:01;;;;;;;25.30;9.60;;;12.40;56.40;;;11.04;57.31;94756.78;4956613;28;20027;-65
2022/03/30 01:45:27;;;;;;;25.63;9.70;;;12.30;56.40;;;11.02;57.10;94737.81;4986052;28;20501;-66
2022/03/30 01:47:54;;;;;;;24.95;9.95;;;12.30;56.60;;;11.06;57.52;94736.31;5004238;28;20030;-66
2022/03/30 01:50:21;;;;;;;28.27;10.38;;;12.40;56.00;;;11.02;56.65;94728.09;4983558;28;20502;-66
2022/03/30 01:52:47;;;;;;;26.67;10.20;;;12.30;55.50;;;11.04;56.10;94736.56;4978622;28;20038;-67
2022/03/30 01:55:14;;;;;;;23.67;9.20;;;12.40;55.30;;;11.07;56.13;94734.50;4996202;28;20391;-64
2022/03/30 01:57:39;;;;;;;27.17;9.93;;;12.40;54.80;;;11.07;56.66;94739.75;4987868;28;20495;-66
2022/03/30 02:00:06;;;;;;;27.58;10.07;;;12.40;54.60;;;11.06;55.34;94723.16;4967245;28;20034;-65
2022/03/30 02:02:32;;;;;;;28.05;10.15;;;12.50;54.50;;;11.12;56.60;94732.81;4985967;28;20436;-65
2022/03/30 02:04:58;;;;;;;23.52;8.68;;;12.60;54.30;;;11.18;54.85;94726.63;4984703;28;20147;-66
2022/03/30 02:07:23;;;;;;;23.70;8.52;;;12.60;53.70;;;11.21;55.57;94717.50;4988328;28;20510;-67
2022/03/30 02:09:49;;;;;;;26.08;9.10;;;12.60;53.20;;;11.23;55.38;94716.22;4994278;28;20039;-67
2022/03/30 02:12:15;;;;;;;26.00;8.88;;;12.70;53.00;;;11.27;55.66;94711.31;4987816;28;20070;-67
2022/03/30 02:14:41;;;;;;;28.95;8.68;;;12.80;52.50;;;11.30;53.49;94708.22;4989509;28;20121;-65
2022/03/30 02:17:07;;;;;;;31.00;8.50;;;12.60;51.50;;;11.26;54.75;94701.81;4993895;28;20667;-65
2022/03/30 02:19:33;;;;;;;32.67;8.85;;;12.60;51.60;;;11.28;54.36;94702.38;4980757;28;20069;-65
2022/03/30 02:21:59;;;;;;;27.00;8.55;;;12.70;51.40;;;11.31;54.19;94700.09;4994529;28;20045;-65
2022/03/30 02:24:25;;;;;;;32.50;7.97;;;12.70;51.20;;;11.30;53.21;94697.69;4993338;28;20034;-66
2022/03/30 02:26:51;;;;;;;29.13;8.68;;;12.70;51.10;;;11.27;53.33;94685.78;4967804;28;20430;-67
2022/03/30 02:29:17;;;;;;;29.10;8.45;;;12.60;50.90;;;11.31;53.18;94694.03;4981588;28;20042;-65
2022/03/30 02:31:43;;;;;;;26.95;7.30;;;12.70;51.00;;;11.31;53.67;94683.50;4976565;28;20450;-65
2022/03/30 02:34:10;;;;;;;18.83;7.28;;;12.60;51.10;;;11.29;52.58;94680.28;4980698;28;20047;-66
2022/03/30 02:36:36;;;;;;;24.92;8.43;;;12.60;50.90;;;11.31;53.39;94672.97;4952161;28;20027;-67
2022/03/30 02:39:03;;;;;;;22.67;8.27;;;12.60;50.80;;;11.30;51.96;94672.16;4958433;28;20106;-65
2022/03/30 02:41:29;;;;;;;23.60;7.78;;;12.60;50.60;;;11.28;52.70;94665.53;4970902;28;20027;-67
2022/03/30 02:43:55;;;;;;;30.25;8.60;;;12.60;50.60;;;11.32;52.39;94677.25;4963335;28;20521;-65
2022/03/30 02:46:21;;;;;;;26.75;8.95;;;12.60;50.50;;;11.31;52.61;94662.44;4982679;28;20062;-66
2022/03/30 02:48:46;;;;;;;29.27;8.23;;;12.60;50.40;;;11.32;53.01;94677.25;4993012;28;20118;-66
2022/03/30 02:51:12;;;;;;;23.17;8.10;;;12.60;50.40;;;11.31;52.02;94663.25;5002495;28;20038;-65
2022/03/30 02:53:38;;;;;;;23.30;8.02;;;12.70;50.30;;;11.32;52.83;94664.06;4986070;28;20038;-65
2022/03/30 02:56:04;;;;;;;30.73;9.02;;;12.60;50.30;;;11.29;51.70;94649.50;4998423;28;20058;-65
2022/03/30 02:58:30;;;;;;;27.10;8.70;;;12.70;50.00;;;11.32;51.70;94658.81;4991460;28;20113;-67
2022/03/30 03:00:55;;;;;;;29.88;8.80;;;12.70;50.20;;;11.32;52.39;94656.19;4994010;28;20117;-68
2022/03/30 03:03:22;;;;;;;27.30;8.13;;;12.70;50.10;;;11.33;51.54;94653.31;4968137;28;20069;-66
2022/03/30 03:05:48;;;;;;;26.45;7.55;;;12.70;50.00;;;11.24;52.32;94640.72;5013603;28;20129;-65
2022/03/30 03:08:13;;;;;;;26.45;8.15;;;12.70;50.10;;;11.32;51.88;94654.34;5002371;28;20418;-66
2022/03/30 03:10:41;;;;;;;27.45;7.93;;;12.70;50.00;;;11.31;52.11;94654.53;4985565;28;20035;-66
2022/03/30 03:13:07;;;;;;;26.38;7.60;;;12.70;50.00;;;11.32;52.00;94643.03;5003892;28;20035;-66
2022/03/30 03:15:35;;;;;;;33.05;7.93;;;12.70;50.00;;;11.32;51.39;94650.91;5002330;28;20072;-65
2022/03/30 03:18:04;;;;;;;29.42;7.75;;;12.70;49.90;;;11.32;51.34;94648.28;5007044;28;20101;-65
2022/03/30 03:20:30;;;;;;;25.67;8.02;;;12.70;50.00;;;11.32;52.32;94643.03;5006061;28;20402;-66
2022/03/30 03:22:57;;;;;;;21.08;8.43;;;12.70;49.90;;;11.32;52.32;94635.91;5018618;28;20088;-66
2022/03/30 03:25:22;;;;;;;26.48;7.47;;;12.70;49.90;;;11.32;51.85;94640.38;4975198;28;20118;-66
2022/03/30 03:27:48;;;;;;;21.70;7.53;;;12.70;49.70;;;11.37;51.50;94651.03;5014786;28;20052;-62
2022/03/30 03:30:14;;;;;;;32.40;8.68;;;12.80;49.80;;;11.39;51.89;94637.63;5005825;28;20534;-67
2022/03/30 03:32:40;;;;;;;32.67;7.85;;;12.80;49.70;;;11.40;52.13;94639.22;4988735;28;20089;-69
2022/03/30 03:35:09;;;;;;;25.95;7.25;;;12.80;49.40;;;11.41;51.31;94630.31;4996866;28;20549;-68
2022/03/30 03:37:38;;;;;;;20.90;8.00;;;12.80;49.60;;;11.42;51.41;94630.06;5000125;28;20046;-67
2022/03/30 03:40:05;;;;;;;30.67;10.60;;;12.90;49.60;;;11.45;51.51;94626.97;4971511;28;20541;-66
2022/03/30 03:42:33;;;;;;;32.97;10.80;;;12.90;49.50;;;11.49;52.17;94632.56;4980946;28;20044;-67
2022/03/30 03:44:58;;;;;;;26.80;7.82;;;12.90;49.50;;;11.47;51.14;94624.91;4975567;28;20034;-68
2022/03/30 03:47:24;;;;;;;38.55;8.43;;;12.90;49.50;;;11.49;51.23;94616.78;5000205;28;20105;-69
2022/03/30 03:49:50;;;;;;;29.33;7.47;;;12.90;49.10;;;11.48;51.62;94615.97;4989060;28;20045;-68
2022/03/30 03:52:16;;;;;;;26.13;7.47;;;12.90;48.90;;;11.43;51.44;94607.97;4985960;28;20180;-67
2022/03/30 03:54:41;;;;;;;23.90;7.45;;;12.90;48.90;;;11.46;50.43;94606.72;4983449;28;20100;-68
2022/03/30 03:57:08;;;;;;;22.77;6.88;;;12.90;49.00;;;11.40;51.25;94603.19;4969817;28;20057;-67
2022/03/30 03:59:33;;;;;;;22.58;7.50;;;12.80;49.00;;;11.38;50.81;94605.25;5007794;28;20038;-67
2022/03/30 04:01:59;;;;;;;29.50;7.65;;;12.80;49.20;;;11.38;50.85;94599.97;4983245;28;20038;-67
2022/03/30 04:04:25;;;;;;;32.33;7.63;;;12.80;49.10;;;11.35;50.67;94601.25;5002168;28;20478;-68
2022/03/30 04:06:51;;;;;;;29.55;7.90;;;12.80;49.00;;;11.34;51.63;94599.63;5006240;28;20092;-68
2022/03/30 04:09:17;;;;;;;27.27;7.57;;;12.80;49.00;;;11.34;50.62;94604.09;5006559;28;20093;-67
2022/03/30 04:11:42;;;;;;;29.83;7.38;;;12.70;49.00;;;11.33;51.77;94602.50;4986341;28;20093;-68
2022/03/30 04:14:08;;;;;;;23.38;7.22;;;12.80;49.10;;;11.29;51.70;94599.50;4991042;28;20034;-68
2022/03/30 04:16:34;;;;;;;23.70;7.32;;;12.70;49.30;;;11.30;51.02;94602.94;4986336;28;20424;-68
2022/03/30 04:18:59;;;;;;;22.08;7.35;;;12.70;49.40;;;11.27;51.43;94606.03;4981612;28;20085;-67
2022/03/30 04:21:25;;;;;;;26.05;7.82;;;12.70;49.50;;;11.25;51.40;94600.19;4998687;28;20434;-68
2022/03/30 04:23:51;;;;;;;20.13;6.82;;;12.70;49.60;;;11.25;51.80;94600.19;5006368;28;20053;-67
2022/03/30 04:26:17;;;;;;;29.85;7.25;;;12.70;49.60;;;11.23;51.17;94602.25;4998187;28;20042;-67
2022/03/30 04:28:43;;;;;;;31.75;8.07;;;12.60;49.60;;;11.17;51.40;94590.03;5019005;28;20060;-68
2022/03/30 04:31:10;;;;;;;29.40;7.60;;;12.60;49.60;;;11.15;51.23;94594.72;5000731;28;20036;-68
2022/03/30 04:33:36;;;;;;;24.85;7.57;;;12.60;49.70;;;11.12;51.12;94584.66;5014506;28;20031;-69
2022/03/30 04:36:02;;;;;;;35.72;8.18;;;12.50;49.50;;;11.05;51.49;94584.75;4960788;28;20176;-68
2022/03/30 04:38:28;;;;;;;30.63;8.15;;;12.50;49.50;;;11.04;50.81;94589.22;4977496;28;20513;-69
2022/03/30 04:40:53;;;;;;;27.52;7.75;;;12.40;49.70;;;10.99;50.67;94589.09;5012652;28;20034;-69
2022/03/30 04:43:19;;;;;;;31.15;7.90;;;12.40;49.70;;;10.93;51.93;94582.13;4986021;28;20483;-71
2022/03/30 04:45:45;;;;;;;30.23;7.28;;;12.30;49.80;;;10.89;51.91;94586.25;4987071;28;20029;-71
2022/03/30 04:48:11;;;;;;;31.75;7.25;;;12.20;49.70;;;10.90;51.06;94587.06;4959318;28;20037;-69
2022/03/30 04:50:36;;;;;;;28.13;7.75;;;12.20;50.00;;;10.90;51.25;94590.47;4978486;28;20051;-70
2022/03/30 04:53:02;;;;;;;30.73;7.43;;;12.30;49.80;;;10.91;52.20;94594.72;4981681;28;20176;-67
2022/03/30 04:55:28;;;;;;;28.15;7.05;;;12.30;49.70;;;10.90;51.00;94593.09;5005243;28;20045;-66
2022/03/30 04:57:54;;;;;;;29.27;7.72;;;12.40;49.60;;;10.86;51.46;94581.41;4988913;28;20406;-66
2022/03/30 05:00:19;;;;;;;28.08;7.72;;;12.30;49.60;;;10.85;51.11;94590.34;4995474;28;20046;-64
2022/03/30 05:02:45;;;;;;;33.28;7.40;;;12.30;49.60;;;10.83;51.79;94581.88;5005298;28;20117;-68
2022/03/30 05:05:11;;;;;;;27.60;7.60;;;12.20;49.60;;;10.82;51.08;94593.44;5005260;28;20034;-64
2022/03/30 05:07:38;;;;;;;30.63;8.00;;;12.20;49.70;;;10.80;51.29;94584.97;5005445;28;20045;-64
2022/03/30 05:10:11;;;;;;;32.30;7.63;;;12.30;49.70;;;10.83;51.99;94586.34;4991726;28;20046;-63
2022/03/30 05:12:37;;;;;;;28.95;8.15;;;12.20;49.60;;;10.85;51.90;94586.91;4984186;28;20406;-64
2022/03/30 05:15:03;;;;;;;28.38;7.43;;;12.30;49.60;;;10.88;52.16;94589.91;4990169;28;20038;-65
2022/03/30 05:17:29;;;;;;;29.67;7.75;;;12.40;49.60;;;10.92;50.86;94596.31;4986091;28;20090;-65
2022/03/30 05:19:55;;;;;;;29.40;7.70;;;12.50;49.70;;;10.91;51.16;94586.03;4994271;28;20046;-70
2022/03/30 05:22:21;;;;;;;36.83;8.45;;;12.40;49.80;;;10.88;50.94;94589.91;4988988;28;20544;-70
2022/03/30 05:24:46;;;;;;;24.95;7.45;;;12.30;49.60;;;10.80;51.84;94576.28;4988391;28;20736;-69
2022/03/30 05:27:13;;;;;;;34.83;7.30;;;12.40;49.70;;;10.88;51.92;94583.84;4989698;28;20054;-64
2022/03/30 05:29:39;;;;;;;34.83;7.85;;;12.40;49.70;;;10.88;51.21;94589.09;4993297;28;20034;-69
2022/03/30 05:32:05;;;;;;;34.22;7.95;;;12.40;49.90;;;10.82;51.57;94580.28;4995436;28;20090;-69
2022/03/30 05:34:31;;;;;;;33.65;7.20;;;12.40;49.80;;;10.87;52.53;94593.56;4979759;28;20036;-66
2022/03/30 05:36:59;;;;;;;30.58;8.02;;;12.40;50.00;;;10.90;51.91;94595.75;4988828;28;20057;-70
2022/03/30 05:39:25;;;;;;;45.60;17.05;;;12.40;50.40;;;10.91;52.14;94592.09;5005025;28;20367;-66
2022/03/30 05:41:52;;;;;;;36.45;9.35;;;12.50;50.10;;;10.94;51.50;94593.44;4994250;28;20030;-70
2022/03/30 05:44:18;;;;;;;31.83;8.68;;;12.50;49.70;;;10.97;51.64;94593.78;4981401;28;20034;-66
2022/03/30 05:46:44;;;;;;;23.30;7.28;;;12.60;50.10;;;11.01;51.97;94594.94;4974574;28;20045;-67
2022/03/30 05:49:10;;;;;;;31.10;7.78;;;12.60;50.90;;;11.03;52.51;94599.97;4999241;28;20458;-68
2022/03/30 05:51:36;;;;;;;25.63;7.70;;;12.60;49.80;;;11.00;52.57;94598.59;4985360;28;20728;-69
2022/03/30 05:54:02;;;;;;;33.42;7.25;;;12.50;49.60;;;10.98;52.58;94590.13;4984735;28;20049;-65
2022/03/30 05:59:12;;;;;;;32.35;7.40;;;12.60;49.50;;;11.00;52.92;94598.59;5006907;28;20045;-65
2022/03/30 06:01:38;;;;;;;29.83;7.85;;;12.60;49.70;;;11.00;51.96;94597.78;4996725;28;20026;-69
2022/03/30 06:04:04;;;;;;;27.30;7.93;;;12.60;49.50;;;10.98;51.73;94600.66;5003583;28;20126;-66
2022/03/30 06:06:30;;;;;;;30.40;7.40;;;12.60;49.60;;;10.99;51.62;94604.88;4980160;28;20026;-67
2022/03/30 06:08:55;;;;;;;24.52;7.70;;;12.60;50.10;;;10.97;53.28;94601.69;4996135;28;20041;-67
2022/03/30 06:11:21;;;;;;;29.00;7.70;;;12.50;50.60;;;10.97;53.40;94599.06;5007933;28;20026;-65
2022/03/30 06:13:47;;;;;;;23.02;7.72;;;12.50;51.20;;;10.96;53.74;94600.09;5005075;28;20088;-66
2022/03/30 06:16:16;;;;;;;28.23;7.82;;;12.60;51.40;;;10.99;54.46;94597.00;4986879;28;20042;-65
2022/03/30 06:18:43;;;;;;;34.90;8.60;;;12.60;51.50;;;11.01;53.46;94594.94;4988880;28;20034;-69
2022/03/30 06:21:09;;;;;;;28.48;7.57;;;12.70;51.60;;;11.08;53.53;94596.66;4996371;28;20046;-69
2022/03/30 06:23:35;;;;;;;27.00;7.90;;;12.70;51.60;;;11.10;54.94;94603.31;5004135;28;20053;-69
2022/03/30 06:26:02;;;;;;;34.30;8.68;;;12.80;52.10;;;11.16;54.64;94606.84;4989385;28;20140;-68
2022/03/30 06:28:29;;;;;;;35.08;8.63;;;12.80;51.20;;;11.18;53.18;94605.59;4997901;28;20553;-67
2022/03/30 06:30:56;;;;;;;27.33;7.30;;;12.80;50.90;;;11.20;53.78;94602.72;5003943;28;20407;-65
2022/03/30 06:33:22;;;;;;;36.00;8.05;;;12.80;50.60;;;11.22;53.58;94611.19;4993044;28;20039;-66
2022/03/30 06:35:47;;;;;;;36.95;7.80;;;12.80;50.70;;;11.24;53.26;94603.84;4999695;28;20128;-65
2022/03/30 06:38:13;;;;;;;36.08;7.60;;;12.90;50.60;;;11.26;53.95;94604.44;4998428;28;20038;-67
2022/03/30 06:40:39;;;;;;;37.88;8.82;;;12.80;50.60;;;11.28;53.52;94607.63;4995755;28;20115;-66
2022/03/30 06:43:05;;;;;;;28.20;7.80;;;12.80;51.00;;;11.30;53.98;94603.72;5003011;28;20039;-63
2022/03/30 06:45:30;;;;;;;27.13;7.80;;;12.90;50.90;;;11.32;54.19;94606.16;4994377;28;20136;-64
2022/03/30 06:47:56;;;;;;;25.67;8.40;;;12.90;50.90;;;11.33;53.90;94607.78;4991070;28;20417;-65
2022/03/30 06:50:22;;;;;;;30.48;8.18;;;12.90;51.00;;;11.35;53.15;94606.50;4983841;28;20042;-69
2022/03/30 06:52:48;;;;;;;40.83;7.38;;;12.90;51.00;;;11.37;53.73;94608.09;5004694;28;20044;-65
2022/03/30 06:55:14;;;;;;;26.88;7.78;;;13.00;51.10;;;11.36;53.76;94604.66;4995351;28;20056;-68
2022/03/30 06:57:41;;;;;;;24.08;6.35;;;13.00;51.10;;;11.38;53.84;94609.72;4982382;28;20034;-66
2022/03/30 07:00:07;;;;;;;28.65;7.22;;;12.80;52.00;;;11.39;53.89;94606.03;4977701;28;20568;-67
2022/03/30 07:02:33;;;;;;;26.55;6.68;;;12.80;52.90;;;11.40;54.32;94595.28;4995912;28;20494;-69
2022/03/30 07:04:59;;;;;;;25.20;7.53;;;13.00;53.40;;;11.43;54.67;94602.72;5001972;28;20078;-63
2022/03/30 07:10:15;;;;;;;32.90;7.85;;;13.10;53.70;;;11.49;56.37;94600.97;5000649;28;20053;-67
2022/03/30 07:12:48;;;;;;;31.52;7.72;;;13.10;53.90;;;11.53;55.87;94597.66;4991692;28;20113;-66
2022/03/30 07:15:15;;;;;;;24.85;7.75;;;13.30;53.70;;;11.55;56.72;94598.25;4993199;28;20057;-70
2022/03/30 07:17:55;;;;;;;22.85;8.00;;;13.30;53.90;;;11.60;56.99;94598.34;5000133;28;20121;-67
2022/03/30 07:20:22;;;;;;;25.23;7.20;;;13.30;54.20;;;11.62;56.30;94601.53;4973644;28;20030;-71
2022/03/30 07:22:48;;;;;;;24.83;7.95;;;13.30;54.20;;;11.65;56.92;94595.00;5023367;28;20033;-68
2022/03/30 07:25:14;;;;;;;25.90;7.30;;;13.40;54.30;;;11.67;56.57;94592.94;4983121;28;20468;-68
2022/03/30 07:27:42;;;;;;;21.90;6.53;;;13.30;54.60;;;11.72;57.27;94597.50;4981901;28;20282;-68
2022/03/30 07:30:08;;;;;;;24.27;6.88;;;13.30;55.00;;;11.71;56.92;94595.91;5002249;28;20073;-65
2022/03/30 07:32:39;;;;;;;26.85;6.60;;;13.20;55.40;;;11.72;57.69;94597.50;5000300;28;20033;-65
2022/03/30 07:35:09;;;;;;;23.88;7.70;;;13.30;55.70;;;11.75;57.79;94600.47;4970543;28;20042;-66
2022/03/30 07:37:34;;;;;;;26.02;6.90;;;13.40;55.60;;;11.75;57.45;94594.41;4968302;28;20089;-68
2022/03/30 07:40:01;;;;;;;27.85;7.53;;;13.40;55.30;;;11.78;58.24;94599.25;4988753;28;20065;-69
2022/03/30 07:42:27;;;;;;;23.65;6.80;;;13.40;55.40;;;11.82;58.11;94600.41;5010487;28;20084;-72
2022/03/30 07:44:53;;;;;;;25.05;7.97;;;13.50;55.30;;;11.85;58.34;94600.72;5000907;28;20042;-69
2022/03/30 07:47:19;;;;;;;30.65;6.57;;;13.50;55.60;;;11.88;58.05;94599.44;4982450;28;20133;-71
2022/03/30 07:49:44;;;;;;;29.63;6.60;;;13.50;55.60;;;11.92;58.17;94595.31;4982786;28;20517;-66
2022/03/30 07:52:10;;;;;;;25.13;6.70;;;13.60;55.30;;;12.01;58.20;94598.41;4992583;28;20411;-65
2022/03/30 07:54:36;;;;;;;33.63;6.90;;;13.80;54.90;;;12.03;58.18;94591.84;4987882;28;20502;-67
2022/03/30 07:57:02;;;;;;;24.52;6.70;;;13.80;54.80;;;12.10;57.97;94600.41;4988328;28;20037;-66
2022/03/30 07:59:27;;;;;;;25.35;7.50;;;13.90;54.80;;;12.13;58.42;94597.31;4993720;28;20034;-69
2022/03/30 08:01:54;;;;;;;24.88;6.93;;;13.80;54.20;;;12.17;58.13;94595.78;4996631;28;20455;-68
2022/03/30 08:04:23;;;;;;;25.73;7.07;;;13.90;54.50;;;12.21;58.56;94593.50;5022871;28;20049;-68
2022/03/30 08:06:48;;;;;;;28.95;7.32;;;14.00;54.70;;;12.24;57.87;94587.78;4988003;28;20537;-69
2022/03/30 08:09:14;;;;;;;22.63;6.70;;;14.10;54.30;;;12.29;58.12;94594.97;4988070;28;20045;-70
2022/03/30 08:11:40;;;;;;;22.88;7.50;;;14.10;54.80;;;12.32;58.50;94592.66;4957581;28;20042;-69
2022/03/30 08:14:06;;;;;;;27.05;7.15;;;14.10;54.90;;;12.37;58.64;94591.94;5004630;28;20121;-66
2022/03/30 08:16:34;;;;;;;27.35;6.85;;;14.10;54.90;;;12.39;57.87;94584.59;4990404;28;20023;-66
2022/03/30 08:19:00;;;;;;;21.67;6.50;;;14.20;54.20;;;12.44;57.72;94587.31;5006262;28;20100;-70
2022/03/30 08:24:11;;;;;;;25.70;6.45;;;14.20;54.10;;;12.51;57.94;94594.06;4972951;28;20108;-67
2022/03/30 08:26:38;;;;;;;27.60;6.72;;;14.20;54.00;;;12.53;57.31;94596.44;4981141;28;20037;-70
2022/03/30 08:29:05;;;;;;;18.92;6.28;;;14.20;53.90;;;12.52;57.32;94584.31;4994555;28;20419;-73
2022/03/30 08:31:31;;;;;;;19.42;6.30;;;14.30;53.80;;;12.57;57.18;94592.28;4964790;28;20026;-66
2022/03/30 08:33:57;;;;;;;19.35;6.30;;;14.20;54.10;;;12.57;57.36;94593.09;4973217;28;20538;-67
2022/03/30 08:36:23;;;;;;;26.42;7.32;;;14.30;54.00;;;12.63;57.32;94596.63;4981577;28;20056;-68
2022/03/30 08:38:48;;;;;;;26.73;6.57;;;14.40;54.20;;;12.66;57.44;94601.41;4969509;28;20502;-66
2022/03/30 08:41:14;;;;;;;23.88;7.75;;;14.40;53.80;;;12.68;57.46;94593.28;4971072;28;20581;-66
2022/03/30 08:43:40;;;;;;;22.77;6.90;;;14.40;54.00;;;12.71;57.31;94590.16;4969670;28;20038;-69
2022/03/30 08:46:06;;;;;;;30.27;6.65;;;14.40;53.70;;;12.69;57.43;94595.69;4985936;28;20141;-66
2022/03/30 08:48:32;;;;;;;17.30;6.50;;;14.40;54.40;;;12.77;57.50;94592.63;5001310;28;20046;-69
2022/03/30 08:50:59;;;;;;;19.40;6.40;;;14.60;53.80;;;12.83;57.75;94596.94;5004837;28;20073;-70
2022/03/30 08:53:26;;;;;;;23.02;6.72;;;14.60;54.10;;;12.85;57.92;94589.59;5004140;28;20046;-65
2022/03/30 08:55:51;;;;;;;26.17;7.00;;;14.60;54.20;;;12.92;57.56;94593.94;5016412;28;20034;-66
2022/03/30 08:58:17;;;;;;;22.77;6.50;;;14.70;53.90;;;12.99;57.99;94595.38;5006636;28;20037;-67
2022/03/30 09:00:43;;;;;;;25.08;6.97;;;14.80;54.00;;;13.06;57.30;94588.06;4985025;28;20120;-68
2022/03/30 09:03:09;;;;;;;19.58;6.38;;;14.90;53.50;;;13.12;57.64;94587.09;4980622;28;20054;-68
2022/03/30 09:05:37;;;;;;;21.20;7.10;;;15.10;53.40;;;13.20;57.38;94580.66;4963970;28;20046;-68
2022/03/30 09:08:25;;;;;;;22.48;7.00;;;15.20;52.90;;;13.27;57.88;94591.84;5004883;28;20425;-67
2022/03/30 09:10:52;;;;;;;23.17;6.53;;;15.20;52.90;;;13.30;57.09;94590.56;4994820;28;20513;-65
2022/03/30 09:13:18;;;;;;;23.73;6.90;;;15.20;52.70;;;13.35;57.17;94580.06;5001415;28;20120;-65
2022/03/30 09:15:44;;;;;;;20.05;6.93;;;15.30;52.40;;;13.32;56.38;94583.19;5001627;28;20038;-66
2022/03/30 09:18:10;;;;;;;20.13;5.55;;;15.10;51.60;;;13.25;57.16;94582.56;4985937;28;20045;-67
2022/03/30 09:20:40;;;;;;;23.75;7.15;;;15.10;52.60;;;13.24;57.36;94573.84;4990873;28;20653;-68
2022/03/30 09:23:08;;;;;;;23.98;6.85;;;15.10;52.60;;;13.24;57.27;94587.06;4989295;28;20041;-64
2022/03/30 09:25:34;;;;;;;25.20;7.20;;;15.10;52.60;;;13.16;56.63;94579.53;4984768;28;20034;-67
2022/03/30 09:28:01;;;;;;;28.73;6.95;;;14.90;53.00;;;13.19;57.48;94579.06;4965395;28;20031;-68
2022/03/30 09:30:28;;;;;;;24.00;6.32;;;15.00;53.80;;;13.18;57.24;94577.47;5009172;28;20042;-70
2022/03/30 09:32:56;;;;;;;27.52;6.68;;;15.00;54.00;;;13.09;58.33;94573.59;5009793;28;20034;-70
2022/03/30 09:35:32;;;;;;;27.42;6.80;;;14.80;54.40;;;13.10;59.33;94569.91;5002676;28;20111;-70
2022/03/30 09:38:13;;;;;;;21.90;5.60;;;15.00;55.00;;;13.15;59.70;94573.44;5003083;28;20041;-70
2022/03/30 09:40:47;;;;;;;29.23;6.90;;;15.00;55.40;;;13.19;60.23;94568.50;4999705;28;20034;-69
2022/03/30 09:43:16;;;;;;;26.05;6.60;;;15.10;55.10;;;13.18;58.84;94561.63;4982810;28;20536;-71
2022/03/30 09:45:42;;;;;;;23.60;7.07;;;15.30;54.40;;;13.28;59.01;94567.03;5000051;28;20068;-72
2022/03/30 09:48:26;;;;;;;20.67;6.72;;;15.20;54.10;;;13.26;58.38;94563.84;5007709;28;20520;-70
2022/03/30 09:50:54;;;;;;;28.52;7.43;;;15.00;53.30;;;13.18;58.36;94565.06;4988556;28;21860;-67
2022/03/30 09:53:22;;;;;;;25.52;7.00;;;15.00;54.00;;;13.12;58.17;94562.53;4988033;28;20057;-69
2022/03/30 09:56:28;;;;;;;28.27;7.57;;;14.90;54.20;;;13.09;58.64;94557.75;4989135;28;20045;-69
2022/03/30 09:59:01;;;;;;;22.38;6.95;;;14.90;54.60;;;13.04;58.38;94555.03;4969044;28;20030;-69
2022/03/30 10:01:33;;;;;;;23.50;7.50;;;14.80;53.80;;;13.06;58.72;94550.31;5017794;28;20034;-69
2022/03/30 10:04:00;;;;;;;21.55;6.75;;;14.90;54.10;;;13.04;58.41;94540.00;4989183;28;20113;-68
2022/03/30 10:06:27;;;;;;;23.70;7.25;;;14.80;54.20;;;13.03;57.71;94537.63;4984559;28;20517;-70
2022/03/30 10:08:54;;;;;;;27.63;6.93;;;14.80;53.80;;;12.96;58.45;94526.44;5026375;28;20063;-70
2022/03/30 10:11:21;;;;;;;32.63;8.13;;;14.70;54.10;;;12.93;57.88;94533.00;4991538;28;20116;-67
2022/03/30 10:13:48;;;;;;;22.15;6.25;;;14.60;54.20;;;12.91;57.87;94536.91;5007343;28;20079;-67
2022/03/30 10:16:17;;;;;;;19.25;6.78;;;14.60;53.70;;;12.83;58.39;94517.78;4992705;28;20045;-66
2022/03/30 10:18:42;;;;;;;24.33;6.53;;;14.60;54.50;;;12.84;58.23;94508.84;5003421;28;20061;-67